createdAt,value
2023-03-18T00:00:44.986Z,63.04
2023-03-18T00:01:54.071Z,62.87
2023-03-18T00:02:57.030Z,62.80
2023-03-18T00:04:01.150Z,62.87
2023-03-18T00:05:05.614Z,62.93
2023-03-18T00:06:14.164Z,62.88
2023-03-18T00:07:17.294Z,62.83
2023-03-18T00:08:20.223Z,62.96
2023-03-18T00:09:24.042Z,62.89
2023-03-18T00:10:26.892Z,62.94
2023-03-18T00:11:30.647Z,62.92
2023-03-18T00:12:33.563Z,62.96
2023-03-18T00:13:36.888Z,62.97
2023-03-18T00:14:39.710Z,63.02
2023-03-18T00:15:42.506Z,62.97
2023-03-18T00:16:45.930Z,62.97
2023-03-18T00:17:48.723Z,63.04
2023-03-18T00:18:52.146Z,63.03
2023-03-18T00:19:55.312Z,63.07
2023-03-18T00:21:00.162Z,63.05
2023-03-18T00:22:03.068Z,62.99
2023-03-18T00:23:08.628Z,62.96
2023-03-18T00:24:12.418Z,62.91
2023-03-18T00:25:15.532Z,62.89
2023-03-18T00:26:18.294Z,62.96
2023-03-18T00:27:21.354Z,62.92
2023-03-18T00:28:25.432Z,62.94
2023-03-18T00:29:28.218Z,63.07
2023-03-18T00:30:31.406Z,63.11
2023-03-18T00:31:34.432Z,63.03
2023-03-18T00:32:38.827Z,63.04
2023-03-18T00:33:46.001Z,63.11
2023-03-18T00:34:50.807Z,63.08
2023-03-18T00:35:54.782Z,63.10
2023-03-18T00:36:57.677Z,63.10
2023-03-18T00:38:00.590Z,63.01
2023-03-18T00:39:04.015Z,63.14
2023-03-18T00:40:17.237Z,63.03
2023-03-18T00:41:20.394Z,63.12
2023-03-18T00:42:23.884Z,63.19
2023-03-18T00:43:29.557Z,63.08
2023-03-18T00:44:33.170Z,63.14
2023-03-18T00:45:41.190Z,63.16
2023-03-18T00:46:44.006Z,63.10
2023-03-18T00:47:48.513Z,63.14
2023-03-18T00:48:53.112Z,63.09
2023-03-18T00:49:55.996Z,63.16
2023-03-18T00:50:59.423Z,63.17
2023-03-18T00:52:02.282Z,63.14
2023-03-18T00:53:06.121Z,63.05
2023-03-18T00:54:12.873Z,63.28
2023-03-18T00:55:15.820Z,63.22
2023-03-18T00:56:22.156Z,63.22
2023-03-18T00:57:25.291Z,63.28
2023-03-18T00:58:28.093Z,63.28
2023-03-18T00:59:33.221Z,63.40
2023-03-18T01:00:37.920Z,63.26
2023-03-18T01:01:41.054Z,63.27
2023-03-18T01:02:44.373Z,63.31
2023-03-18T01:03:49.365Z,63.25
2023-03-18T01:04:52.355Z,63.37
2023-03-18T01:05:55.621Z,63.41
2023-03-18T01:06:58.436Z,63.34
2023-03-18T01:08:01.893Z,63.38
2023-03-18T01:09:06.752Z,63.39
2023-03-18T01:10:12.702Z,63.43
2023-03-18T01:11:16.518Z,63.35
2023-03-18T01:12:19.311Z,63.43
2023-03-18T01:13:23.961Z,63.36
2023-03-18T01:14:26.809Z,63.43
2023-03-18T01:15:29.709Z,63.44
2023-03-18T01:16:32.584Z,63.48
2023-03-18T01:17:35.423Z,63.50
2023-03-18T01:18:38.448Z,63.44
2023-03-18T01:19:42.451Z,63.50
2023-03-18T01:20:45.518Z,63.44
2023-03-18T01:21:48.697Z,63.44
2023-03-18T01:22:51.549Z,63.45
2023-03-18T01:23:54.716Z,63.54
2023-03-18T01:24:58.773Z,63.59
2023-03-18T01:26:09.794Z,63.64
2023-03-18T01:27:14.037Z,63.56
2023-03-18T01:28:18.271Z,63.55
2023-03-18T01:29:23.762Z,63.50
2023-03-18T01:30:28.532Z,63.55
2023-03-18T01:31:32.076Z,63.43
2023-03-18T01:32:39.548Z,63.51
2023-03-18T01:33:42.497Z,63.52
2023-03-18T01:34:45.554Z,63.54
2023-03-18T01:35:54.723Z,63.48
2023-03-18T01:36:58.424Z,63.51
2023-03-18T01:38:05.551Z,63.52
2023-03-18T01:39:10.338Z,63.50
2023-03-18T01:40:16.124Z,63.48
2023-03-18T01:41:20.410Z,63.48
2023-03-18T01:42:23.274Z,63.51
2023-03-18T01:43:32.323Z,63.56
2023-03-18T01:44:36.238Z,63.63
2023-03-18T01:45:40.468Z,63.59
2023-03-18T01:46:45.929Z,63.49
2023-03-18T01:47:49.941Z,63.47
2023-03-18T01:48:53.541Z,63.53
2023-03-18T01:49:56.409Z,63.57
2023-03-18T01:51:04.564Z,63.67
2023-03-18T01:52:12.925Z,63.65
2023-03-18T01:53:17.948Z,63.57
2023-03-18T01:54:22.642Z,63.53
2023-03-18T01:55:29.805Z,63.61
2023-03-18T01:56:36.714Z,63.54
2023-03-18T01:57:42.094Z,63.45
2023-03-18T01:58:48.369Z,63.57
2023-03-18T01:59:53.900Z,63.50
2023-03-18T02:01:09.537Z,63.56
2023-03-18T02:02:16.310Z,63.49
2023-03-18T02:03:20.216Z,63.60
2023-03-18T02:04:27.741Z,63.55
2023-03-18T02:05:30.708Z,63.47
2023-03-18T02:06:33.566Z,63.56
2023-03-18T02:07:38.098Z,63.58
2023-03-18T02:08:40.957Z,63.56
2023-03-18T02:09:46.099Z,63.67
2023-03-18T02:10:49.778Z,63.54
2023-03-18T02:13:04.110Z,63.54
2023-03-18T02:14:14.338Z,63.47
2023-03-18T02:15:21.435Z,63.43
2023-03-18T02:16:28.862Z,63.51
2023-03-18T02:17:37.000Z,63.55
2023-03-18T02:18:51.191Z,63.56
2023-03-18T02:20:05.224Z,63.47
2023-03-18T02:21:32.214Z,63.52
2023-03-18T02:22:46.898Z,63.56
2023-03-18T02:23:55.375Z,63.53
2023-03-18T02:25:10.158Z,63.57
2023-03-18T02:26:23.690Z,63.53
2023-03-18T02:27:32.106Z,63.57
2023-03-18T02:28:38.007Z,63.59
2023-03-18T02:29:42.516Z,63.53
2023-03-18T02:30:54.211Z,63.55
2023-03-18T02:32:01.466Z,63.51
2023-03-18T02:33:06.928Z,63.47
2023-03-18T02:34:11.774Z,63.60
2023-03-18T02:35:15.005Z,63.51
2023-03-18T02:36:22.699Z,63.54
2023-03-18T02:37:26.747Z,63.67
2023-03-18T02:38:30.028Z,63.49
2023-03-18T02:39:33.301Z,63.58
2023-03-18T02:40:39.718Z,63.59
2023-03-18T02:41:47.401Z,63.50
2023-03-18T02:42:51.531Z,63.52
2023-03-18T02:43:55.304Z,63.53
2023-03-18T02:44:59.817Z,63.49
2023-03-18T02:46:31.618Z,63.48
2023-03-18T02:47:34.478Z,63.47
2023-03-18T02:48:40.226Z,63.57
2023-03-18T02:49:43.407Z,63.57
2023-03-18T02:50:47.472Z,63.58
2023-03-18T02:51:51.648Z,63.50
2023-03-18T02:52:54.485Z,63.55
2023-03-18T02:54:04.094Z,63.63
2023-03-18T02:55:07.224Z,63.57
2023-03-18T02:56:11.816Z,63.59
2023-03-18T02:57:15.889Z,63.62
2023-03-18T02:58:21.244Z,63.56
2023-03-18T02:59:24.776Z,63.59
2023-03-18T03:00:27.617Z,63.56
2023-03-18T03:01:33.726Z,63.75
2023-03-18T03:02:37.124Z,63.55
2023-03-18T03:03:41.038Z,63.63
2023-03-18T03:04:46.133Z,63.61
2023-03-18T03:05:51.106Z,63.50
2023-03-18T03:06:57.070Z,63.57
2023-03-18T03:08:16.279Z,63.59
2023-03-18T03:09:22.687Z,63.66
2023-03-18T03:10:26.283Z,63.59
2023-03-18T03:11:29.303Z,63.63
2023-03-18T03:12:37.892Z,63.60
2023-03-18T03:13:42.140Z,63.64
2023-03-18T03:14:45.922Z,63.65
2023-03-18T03:15:49.742Z,63.62
2023-03-18T03:16:52.930Z,63.62
2023-03-18T03:17:55.896Z,63.52
2023-03-18T03:18:59.004Z,63.60
2023-03-18T03:20:02.071Z,63.63
2023-03-18T03:21:05.408Z,63.63
2023-03-18T03:22:08.327Z,63.59
2023-03-18T03:23:14.504Z,63.60
2023-03-18T03:24:17.307Z,63.62
2023-03-18T03:25:20.577Z,63.59
2023-03-18T03:26:23.736Z,63.62
2023-03-18T03:27:27.856Z,63.53
2023-03-18T03:28:32.870Z,63.58
2023-03-18T03:29:35.684Z,63.49
2023-03-18T03:30:39.335Z,63.50
2023-03-18T03:31:42.217Z,63.55
2023-03-18T03:32:45.230Z,63.49
2023-03-18T03:33:48.057Z,63.60
2023-03-18T03:34:50.852Z,63.53
2023-03-18T03:35:54.384Z,63.51
2023-03-18T03:36:57.231Z,63.59
2023-03-18T03:38:02.063Z,63.57
2023-03-18T03:39:06.205Z,63.63
2023-03-18T03:40:14.825Z,63.56
2023-03-18T03:41:18.013Z,63.57
2023-03-18T03:42:20.774Z,63.51
2023-03-18T03:43:23.878Z,63.58
2023-03-18T03:44:26.631Z,63.50
2023-03-18T03:45:29.700Z,63.59
2023-03-18T03:46:32.887Z,63.54
2023-03-18T03:47:36.273Z,63.62
2023-03-18T03:48:40.130Z,63.48
2023-03-18T03:49:47.112Z,63.46
2023-03-18T03:50:51.676Z,63.59
2023-03-18T03:51:54.513Z,63.56
2023-03-18T03:52:58.896Z,63.56
2023-03-18T03:54:04.085Z,63.52
2023-03-18T03:55:09.596Z,63.51
2023-03-18T03:56:12.671Z,63.53
2023-03-18T03:57:15.704Z,63.55
2023-03-18T03:58:18.764Z,63.54
2023-03-18T03:59:21.625Z,63.53
2023-03-18T04:00:50.760Z,63.54
2023-03-18T04:01:53.568Z,63.65
2023-03-18T04:02:56.871Z,63.56
2023-03-18T04:04:02.919Z,63.53
2023-03-18T04:05:07.260Z,63.57
2023-03-18T04:06:10.043Z,63.66
2023-03-18T04:07:16.110Z,63.61
2023-03-18T04:08:19.011Z,63.60
2023-03-18T04:09:22.290Z,63.58
2023-03-18T04:10:26.497Z,63.57
2023-03-18T04:11:29.888Z,63.55
2023-03-18T04:12:33.492Z,63.63
2023-03-18T04:13:36.756Z,63.66
2023-03-18T04:14:39.853Z,63.69
2023-03-18T04:15:42.751Z,63.64
2023-03-18T04:16:48.955Z,63.67
2023-03-18T04:17:52.025Z,63.70
2023-03-18T04:18:54.891Z,63.58
2023-03-18T04:19:59.496Z,63.69
2023-03-18T04:21:06.011Z,63.81
2023-03-18T04:22:29.667Z,63.80
2023-03-18T04:23:33.624Z,63.75
2023-03-18T04:24:36.722Z,63.74
2023-03-18T04:25:39.708Z,63.77
2023-03-18T04:26:42.783Z,63.85
2023-03-18T04:27:45.791Z,63.76
2023-03-18T04:28:49.148Z,63.77
2023-03-18T04:29:52.325Z,63.73
2023-03-18T04:30:55.562Z,63.81
2023-03-18T04:31:59.123Z,63.82
2023-03-18T04:33:03.571Z,63.84
2023-03-18T04:34:07.004Z,63.83
2023-03-18T04:35:11.197Z,63.75
2023-03-18T04:36:14.204Z,63.78
2023-03-18T04:37:20.150Z,63.93
2023-03-18T04:38:24.652Z,63.97
2023-03-18T04:39:27.749Z,63.81
2023-03-18T04:40:31.221Z,63.92
2023-03-18T04:41:34.571Z,63.87
2023-03-18T04:42:39.689Z,63.83
2023-03-18T04:43:44.769Z,63.91
2023-03-18T04:44:47.822Z,63.84
2023-03-18T04:45:51.939Z,63.94
2023-03-18T04:46:55.260Z,63.90
2023-03-18T04:47:58.581Z,63.91
2023-03-18T04:49:02.187Z,63.95
2023-03-18T04:50:06.159Z,63.96
2023-03-18T04:51:09.587Z,63.97
2023-03-18T04:52:12.650Z,63.91
2023-03-18T04:53:16.724Z,63.87
2023-03-18T04:54:20.582Z,63.98
2023-03-18T04:55:24.585Z,63.96
2023-03-18T04:56:28.131Z,64.02
2023-03-18T04:57:31.806Z,64.01
2023-03-18T04:58:35.003Z,63.91
2023-03-18T04:59:45.451Z,63.94
2023-03-18T05:00:48.260Z,63.97
2023-03-18T05:01:58.354Z,63.92
2023-03-18T05:03:03.110Z,64.09
2023-03-18T05:04:06.808Z,64.00
2023-03-18T05:05:19.001Z,64.05
2023-03-18T05:06:26.974Z,64.15
2023-03-18T05:07:56.059Z,64.04
2023-03-18T05:09:00.828Z,64.08
2023-03-18T05:10:08.458Z,64.05
2023-03-18T05:11:16.202Z,64.01
2023-03-18T05:12:19.285Z,64.04
2023-03-18T05:13:22.054Z,64.09
2023-03-18T05:14:25.337Z,64.09
2023-03-18T05:15:28.271Z,64.04
2023-03-18T05:16:33.322Z,64.12
2023-03-18T05:17:36.144Z,64.15
2023-03-18T05:18:41.198Z,64.05
2023-03-18T05:19:48.262Z,64.03
2023-03-18T05:20:55.014Z,64.05
2023-03-18T05:21:58.051Z,64.10
2023-03-18T05:23:02.084Z,64.05
2023-03-18T05:24:15.233Z,64.07
2023-03-18T05:25:20.435Z,64.08
2023-03-18T05:26:23.576Z,64.06
2023-03-18T05:27:28.383Z,64.11
2023-03-18T05:28:35.948Z,64.08
2023-03-18T05:29:48.245Z,63.97
2023-03-18T05:31:03.829Z,63.98
2023-03-18T05:32:08.841Z,64.00
2023-03-18T05:33:12.460Z,63.97
2023-03-18T05:34:20.033Z,63.96
2023-03-18T05:35:23.075Z,64.01
2023-03-18T05:36:26.591Z,63.98
2023-03-18T05:37:33.976Z,63.92
2023-03-18T05:38:41.154Z,63.94
2023-03-18T05:39:45.387Z,63.93
2023-03-18T05:40:50.003Z,63.94
2023-03-18T05:41:56.664Z,63.89
2023-03-18T05:43:02.843Z,63.90
2023-03-18T05:44:13.486Z,63.95
2023-03-18T05:45:17.602Z,63.84
2023-03-18T05:46:27.149Z,63.90
2023-03-18T05:48:06.695Z,63.77
2023-03-18T05:49:15.223Z,63.78
2023-03-18T05:50:37.939Z,63.49
2023-03-18T05:51:42.600Z,63.48
2023-03-18T05:52:47.173Z,63.51
2023-03-18T05:53:54.605Z,63.62
2023-03-18T05:55:01.219Z,63.74
2023-03-18T05:56:07.965Z,63.52
2023-03-18T05:57:11.191Z,63.57
2023-03-18T05:58:14.023Z,63.60
2023-03-18T05:59:17.360Z,63.54
2023-03-18T06:00:31.443Z,63.19
2023-03-18T06:01:34.909Z,63.24
2023-03-18T06:02:39.103Z,62.97
2023-03-18T06:03:42.860Z,62.40
2023-03-18T06:04:46.218Z,62.59
2023-03-18T06:05:49.818Z,62.55
2023-03-18T06:06:53.542Z,62.63
2023-03-18T06:07:57.709Z,62.55
2023-03-18T06:09:01.084Z,62.77
2023-03-18T06:10:04.350Z,62.64
2023-03-18T06:11:08.044Z,61.55
2023-03-18T06:12:12.082Z,61.58
2023-03-18T06:13:15.416Z,61.08
2023-03-18T06:14:19.427Z,61.18
2023-03-18T06:15:22.976Z,61.27
2023-03-18T06:16:28.325Z,61.04
2023-03-18T06:17:31.542Z,61.06
2023-03-18T06:18:35.251Z,60.95
2023-03-18T06:19:38.147Z,61.09
2023-03-18T06:20:41.291Z,60.93
2023-03-18T06:21:44.379Z,60.55
2023-03-18T06:22:51.720Z,60.20
2023-03-18T06:23:54.780Z,60.20
2023-03-18T06:24:58.467Z,59.64
2023-03-18T06:26:01.988Z,59.36
2023-03-18T06:27:07.433Z,59.34
2023-03-18T06:28:10.527Z,59.78
2023-03-18T06:29:13.518Z,58.88
2023-03-18T06:30:18.153Z,59.23
2023-03-18T06:31:22.466Z,59.20
2023-03-18T06:32:28.195Z,58.42
2023-03-18T06:33:32.918Z,59.03
2023-03-18T06:34:36.385Z,59.07
2023-03-18T06:35:39.837Z,59.04
2023-03-18T06:36:42.667Z,59.47
2023-03-18T06:37:48.657Z,58.99
2023-03-18T06:38:52.122Z,58.47
2023-03-18T06:39:55.372Z,58.62
2023-03-18T06:40:59.866Z,59.16
2023-03-18T06:42:03.039Z,59.07
2023-03-18T06:43:14.159Z,58.33
2023-03-18T06:44:19.283Z,58.59
2023-03-18T06:45:22.980Z,58.46
2023-03-18T06:46:43.327Z,58.53
2023-03-18T06:47:46.894Z,58.49
2023-03-18T06:48:49.934Z,58.42
2023-03-18T06:49:57.145Z,58.41
2023-03-18T06:51:08.221Z,58.59
2023-03-18T06:52:14.217Z,58.64
2023-03-18T06:53:17.858Z,58.83
2023-03-18T06:54:21.301Z,58.34
2023-03-18T06:55:26.705Z,58.26
2023-03-18T06:56:30.650Z,58.30
2023-03-18T06:57:42.636Z,57.84
2023-03-18T06:58:45.939Z,58.14
2023-03-18T06:59:49.009Z,58.35
2023-03-18T07:00:51.902Z,58.43
2023-03-18T07:02:00.518Z,58.37
2023-03-18T07:03:04.970Z,58.34
2023-03-18T07:04:08.333Z,57.84
2023-03-18T07:05:12.819Z,57.99
2023-03-18T07:06:18.768Z,58.22
2023-03-18T07:07:22.362Z,58.14
2023-03-18T07:08:25.698Z,58.12
2023-03-18T07:09:28.607Z,58.01
2023-03-18T07:10:33.536Z,58.24
2023-03-18T07:11:41.662Z,58.16
2023-03-18T07:12:48.657Z,58.18
2023-03-18T07:13:53.317Z,57.91
2023-03-18T07:15:07.635Z,57.64
2023-03-18T07:16:11.138Z,58.05
2023-03-18T07:17:14.698Z,58.13
2023-03-18T07:18:17.573Z,57.74
2023-03-18T07:19:22.927Z,57.52
2023-03-18T07:20:27.201Z,57.75
2023-03-18T07:21:30.110Z,58.01
2023-03-18T07:22:33.254Z,58.23
2023-03-18T07:23:36.227Z,57.71
2023-03-18T07:24:39.136Z,57.96
2023-03-18T07:25:44.757Z,57.85
2023-03-18T07:26:47.570Z,57.88
2023-03-18T07:27:50.685Z,57.94
2023-03-18T07:28:54.373Z,58.03
2023-03-18T07:29:57.217Z,57.92
2023-03-18T07:31:00.008Z,57.57
2023-03-18T07:32:04.175Z,58.18
2023-03-18T07:33:07.917Z,58.06
2023-03-18T07:34:12.313Z,57.89
2023-03-18T07:35:15.820Z,57.58
2023-03-18T07:36:19.368Z,57.60
2023-03-18T07:37:22.109Z,57.76
2023-03-18T07:38:25.516Z,57.76
2023-03-18T07:39:28.711Z,57.82
2023-03-18T07:40:31.520Z,57.91
2023-03-18T07:41:37.641Z,57.72
2023-03-18T07:42:40.861Z,57.64
2023-03-18T07:43:43.726Z,57.35
2023-03-18T07:44:46.592Z,57.41
2023-03-18T07:45:49.325Z,56.88
2023-03-18T07:46:52.614Z,56.96
2023-03-18T07:47:55.401Z,57.08
2023-03-18T07:48:58.137Z,57.05
2023-03-18T07:50:01.217Z,57.33
2023-03-18T07:51:04.254Z,57.29
2023-03-18T07:52:07.833Z,57.20
2023-03-18T07:53:10.830Z,56.98
2023-03-18T07:54:14.359Z,56.91
2023-03-18T07:55:17.226Z,56.38
2023-03-18T07:56:20.570Z,56.55
2023-03-18T07:57:24.179Z,57.02
2023-03-18T07:58:27.250Z,57.17
2023-03-18T07:59:30.077Z,57.22
2023-03-18T08:00:33.140Z,56.74
2023-03-18T08:01:35.966Z,56.95
2023-03-18T08:02:39.129Z,56.77
2023-03-18T08:03:43.752Z,56.87
2023-03-18T08:04:46.882Z,56.75
2023-03-18T08:05:49.911Z,56.78
2023-03-18T08:06:53.502Z,56.34
2023-03-18T08:07:56.366Z,56.55
2023-03-18T08:09:00.062Z,56.71
2023-03-18T08:10:04.001Z,56.54
2023-03-18T08:11:08.341Z,56.62
2023-03-18T08:12:11.185Z,56.71
2023-03-18T08:13:14.328Z,56.69
2023-03-18T08:14:17.505Z,56.37
2023-03-18T08:15:22.030Z,56.93
2023-03-18T08:16:25.868Z,56.57
2023-03-18T08:17:28.729Z,56.36
2023-03-18T08:18:31.673Z,56.18
2023-03-18T08:19:34.584Z,56.01
2023-03-18T08:20:38.485Z,55.95
2023-03-18T08:21:41.309Z,54.92
2023-03-18T08:22:45.990Z,55.59
2023-03-18T08:23:49.122Z,55.73
2023-03-18T08:24:52.149Z,56.01
2023-03-18T08:25:55.058Z,56.22
2023-03-18T08:26:57.905Z,56.42
2023-03-18T08:28:00.702Z,56.22
2023-03-18T08:29:03.682Z,55.97
2023-03-18T08:30:07.213Z,56.14
2023-03-18T08:31:10.386Z,56.02
2023-03-18T08:32:13.563Z,56.17
2023-03-18T08:33:16.970Z,55.90
2023-03-18T08:34:20.110Z,55.75
2023-03-18T08:35:23.577Z,55.88
2023-03-18T08:36:28.710Z,55.81
2023-03-18T08:37:31.493Z,54.87
2023-03-18T08:38:35.179Z,55.08
2023-03-18T08:39:37.980Z,54.92
2023-03-18T08:40:42.393Z,55.22
2023-03-18T08:41:45.899Z,54.78
2023-03-18T08:42:48.744Z,54.93
2023-03-18T08:43:52.516Z,53.88
2023-03-18T08:44:55.553Z,54.19
2023-03-18T08:45:58.674Z,54.54
2023-03-18T08:47:01.928Z,54.71
2023-03-18T08:48:05.634Z,54.35
2023-03-18T08:49:08.473Z,54.54
2023-03-18T08:50:12.231Z,54.78
2023-03-18T08:51:16.928Z,54.67
2023-03-18T08:52:19.930Z,54.80
2023-03-18T08:53:23.336Z,54.57
2023-03-18T08:54:27.800Z,54.51
2023-03-18T08:55:34.677Z,54.32
2023-03-18T08:56:38.213Z,54.50
2023-03-18T08:57:41.077Z,54.56
2023-03-18T08:58:48.294Z,53.91
2023-03-18T08:59:51.216Z,53.13
2023-03-18T09:00:55.616Z,53.53
2023-03-18T09:01:58.620Z,53.77
2023-03-18T09:03:01.779Z,53.55
2023-03-18T09:04:04.687Z,53.50
2023-03-18T09:05:07.787Z,53.21
2023-03-18T09:06:15.226Z,53.79
2023-03-18T09:07:19.174Z,53.55
2023-03-18T09:08:22.647Z,53.18
2023-03-18T09:09:40.929Z,53.18
2023-03-18T09:10:46.590Z,53.39
2023-03-18T09:11:49.856Z,52.98
2023-03-18T09:12:52.677Z,52.83
2023-03-18T09:13:55.714Z,53.18
2023-03-18T09:14:58.841Z,52.95
2023-03-18T09:16:01.933Z,52.67
2023-03-18T09:17:04.908Z,52.20
2023-03-18T09:18:12.170Z,51.98
2023-03-18T09:19:15.362Z,52.79
2023-03-18T09:20:18.382Z,52.96
2023-03-18T09:21:22.559Z,53.10
2023-03-18T09:22:25.312Z,53.17
2023-03-18T09:23:28.595Z,52.80
2023-03-18T09:24:31.715Z,52.61
2023-03-18T09:25:35.183Z,51.75
2023-03-18T09:26:39.468Z,52.30
2023-03-18T09:27:42.334Z,52.01
2023-03-18T09:28:45.065Z,51.41
2023-03-18T09:29:48.634Z,50.79
2023-03-18T09:30:51.981Z,51.49
2023-03-18T09:31:55.580Z,51.65
2023-03-18T09:32:59.310Z,51.76
2023-03-18T09:34:02.638Z,52.39
2023-03-18T09:35:06.729Z,52.47
2023-03-18T09:36:10.209Z,52.40
2023-03-18T09:37:14.848Z,51.89
2023-03-18T09:38:20.038Z,50.82
2023-03-18T09:39:23.201Z,51.30
2023-03-18T09:40:32.713Z,51.56
2023-03-18T09:42:01.208Z,51.48
2023-03-18T09:43:49.012Z,50.76
2023-03-18T09:44:58.788Z,51.37
2023-03-18T09:46:20.155Z,51.08
2023-03-18T09:47:53.505Z,51.14
2023-03-18T09:49:18.016Z,50.82
2023-03-18T09:50:36.904Z,50.60
2023-03-18T09:51:57.607Z,49.84
2023-03-18T09:53:14.380Z,50.14
2023-03-18T09:54:30.379Z,50.45
2023-03-18T09:55:46.561Z,50.22
2023-03-18T09:56:52.576Z,50.51
2023-03-18T09:58:01.290Z,50.75
2023-03-18T09:59:12.492Z,50.36
2023-03-18T10:00:29.477Z,50.01
2023-03-18T10:01:36.174Z,50.39
2023-03-18T10:02:46.938Z,50.18
2023-03-18T10:04:09.729Z,50.60
2023-03-18T10:05:26.008Z,50.34
2023-03-18T10:06:28.880Z,50.80
2023-03-18T10:07:42.873Z,50.64
2023-03-18T10:09:14.459Z,50.38
2023-03-18T10:10:38.760Z,50.24
2023-03-18T10:11:44.338Z,50.11
2023-03-18T10:12:53.233Z,49.79
2023-03-18T10:14:11.267Z,49.24
2023-03-18T10:15:21.612Z,49.88
2023-03-18T10:16:31.166Z,50.12
2023-03-18T10:17:47.112Z,50.00
2023-03-18T10:18:49.905Z,49.80
2023-03-18T10:19:58.895Z,49.89
2023-03-18T10:21:16.890Z,49.87
2023-03-18T10:22:30.376Z,49.72
2023-03-18T10:23:43.996Z,49.45
2023-03-18T10:25:09.727Z,49.19
2023-03-18T10:26:19.926Z,49.40
2023-03-18T10:27:38.446Z,49.56
2023-03-18T10:29:18.985Z,49.10
2023-03-18T10:30:47.361Z,49.08
2023-03-18T10:32:17.315Z,49.49
2023-03-18T10:33:22.861Z,49.08
2023-03-18T10:34:38.933Z,48.88
2023-03-18T10:35:58.272Z,48.31
2023-03-18T10:37:17.845Z,48.91
2023-03-18T10:38:26.521Z,48.92
2023-03-18T10:39:31.015Z,49.24
2023-03-18T10:40:41.345Z,48.31
2023-03-18T10:41:50.068Z,48.01
2023-03-18T10:42:55.900Z,48.12
2023-03-18T10:44:04.613Z,48.38
2023-03-18T10:45:29.933Z,48.59
2023-03-18T10:46:35.726Z,48.32
2023-03-18T10:47:44.572Z,48.10
2023-03-18T10:48:53.445Z,48.29
2023-03-18T10:50:20.064Z,48.66
2023-03-18T10:51:34.961Z,48.71
2023-03-18T10:52:47.967Z,48.47
2023-03-18T10:54:03.750Z,48.24
2023-03-18T10:55:15.636Z,47.47
2023-03-18T10:56:19.240Z,47.82
2023-03-18T10:57:23.780Z,47.63
2023-03-18T10:58:28.108Z,47.77
2023-03-18T10:59:31.183Z,47.68
2023-03-18T11:00:34.540Z,48.17
2023-03-18T11:01:39.477Z,48.13
2023-03-18T11:02:42.678Z,47.97
2023-03-18T11:03:50.418Z,48.47
2023-03-18T11:05:04.811Z,48.29
2023-03-18T11:06:26.258Z,47.97
2023-03-18T11:07:29.037Z,47.64
2023-03-18T11:08:38.302Z,47.79
2023-03-18T11:09:42.463Z,47.50
2023-03-18T11:10:46.852Z,47.80
2023-03-18T11:11:55.988Z,47.97
2023-03-18T11:13:00.372Z,47.13
2023-03-18T11:14:05.363Z,47.47
2023-03-18T11:15:12.977Z,47.73
2023-03-18T11:16:38.460Z,47.50
2023-03-18T11:17:42.152Z,47.35
2023-03-18T11:18:46.390Z,47.55
2023-03-18T11:20:01.206Z,47.22
2023-03-18T11:21:12.916Z,47.38
2023-03-18T11:22:22.341Z,47.54
2023-03-18T11:23:56.149Z,46.85
2023-03-18T11:25:11.564Z,46.56
2023-03-18T11:26:25.259Z,47.01
2023-03-18T11:27:38.593Z,46.98
2023-03-18T11:28:41.939Z,47.09
2023-03-18T11:29:50.816Z,46.72
2023-03-18T11:30:57.461Z,46.36
2023-03-18T11:32:01.829Z,46.27
2023-03-18T11:33:10.469Z,45.56
2023-03-18T11:34:19.901Z,45.39
2023-03-18T11:35:40.034Z,45.44
2023-03-18T11:36:43.466Z,45.13
2023-03-18T11:37:47.174Z,45.45
2023-03-18T11:39:02.054Z,45.80
2023-03-18T11:40:13.509Z,45.52
2023-03-18T11:41:30.242Z,45.42
2023-03-18T11:42:33.031Z,45.33
2023-03-18T11:43:37.923Z,45.41
2023-03-18T11:44:40.758Z,45.27
2023-03-18T11:46:00.244Z,44.90
2023-03-18T11:47:10.811Z,45.08
2023-03-18T11:48:19.116Z,45.16
2023-03-18T11:49:28.458Z,45.75
2023-03-18T11:50:45.012Z,45.82
2023-03-18T11:52:01.261Z,45.51
2023-03-18T11:53:31.207Z,45.05
2023-03-18T11:55:11.177Z,44.51
2023-03-18T11:56:34.320Z,44.63
2023-03-18T11:58:07.052Z,45.24
2023-03-18T11:59:22.244Z,45.45
2023-03-18T12:00:48.624Z,44.87
2023-03-18T12:02:12.993Z,43.79
2023-03-18T12:04:12.403Z,43.75
2023-03-18T12:05:35.512Z,44.34
2023-03-18T12:06:54.472Z,44.48
2023-03-18T12:08:08.076Z,44.62
2023-03-18T12:09:30.486Z,44.86
2023-03-18T12:11:07.767Z,44.87
2023-03-18T12:12:34.377Z,44.07
2023-03-18T12:14:18.833Z,44.13
2023-03-18T12:15:40.595Z,43.47
2023-03-18T12:16:59.245Z,44.24
2023-03-18T12:18:26.634Z,44.41
2023-03-18T12:20:10.696Z,44.38
2023-03-18T12:21:50.803Z,44.39
2023-03-18T12:22:54.464Z,44.05
2023-03-18T12:24:33.072Z,44.30
2023-03-18T12:26:01.202Z,44.21
2023-03-18T12:27:15.967Z,44.12
2023-03-18T12:28:21.965Z,42.94
2023-03-18T12:29:42.493Z,43.70
2023-03-18T12:31:16.608Z,43.65
2023-03-18T12:32:26.491Z,42.98
2023-03-18T12:33:52.128Z,42.89
2023-03-18T12:35:07.467Z,42.50
2023-03-18T12:36:47.260Z,43.06
2023-03-18T12:38:14.140Z,43.02
2023-03-18T12:39:40.916Z,43.43
2023-03-18T12:41:21.528Z,43.17
2023-03-18T12:42:37.361Z,42.97
2023-03-18T12:43:49.867Z,43.11
2023-03-18T12:45:02.239Z,43.25
2023-03-18T12:46:20.121Z,43.28
2023-03-18T12:47:34.729Z,43.37
2023-03-18T12:48:51.871Z,43.11
2023-03-18T12:50:01.008Z,43.07
2023-03-18T12:51:10.942Z,43.41
2023-03-18T12:52:19.309Z,43.32
2023-03-18T12:53:33.504Z,43.39
2023-03-18T12:54:47.935Z,43.18
2023-03-18T12:55:57.582Z,43.55
2023-03-18T12:57:03.907Z,43.28
2023-03-18T12:58:16.308Z,42.84
2023-03-18T12:59:30.406Z,43.14
2023-03-18T13:00:36.306Z,43.20
2023-03-18T13:01:53.365Z,43.24
2023-03-18T13:03:18.596Z,43.03
2023-03-18T13:04:28.450Z,42.68
2023-03-18T13:05:40.918Z,43.02
2023-03-18T13:06:54.155Z,41.85
2023-03-18T13:08:36.067Z,43.04
2023-03-18T13:09:54.172Z,42.85
2023-03-18T13:11:29.325Z,43.23
2023-03-18T13:12:43.810Z,43.29
2023-03-18T13:13:54.864Z,43.47
2023-03-18T13:15:02.324Z,43.58
2023-03-18T13:16:06.074Z,43.39
2023-03-18T13:17:17.244Z,43.83
2023-03-18T13:18:25.290Z,43.83
2023-03-18T13:19:29.370Z,43.72
2023-03-18T13:20:38.749Z,44.26
2023-03-18T13:21:48.659Z,44.27
2023-03-18T13:23:26.000Z,44.29
2023-03-18T13:24:29.298Z,44.35
2023-03-18T13:25:56.721Z,44.41
2023-03-18T13:27:16.497Z,44.21
2023-03-18T13:28:38.131Z,44.67
2023-03-18T13:29:51.693Z,44.43
2023-03-18T13:31:06.539Z,44.65
2023-03-18T13:32:44.066Z,44.44
2023-03-18T13:33:53.446Z,44.46
2023-03-18T13:35:05.464Z,44.58
2023-03-18T13:36:41.804Z,44.68
2023-03-18T13:38:10.754Z,44.78
2023-03-18T13:39:31.723Z,44.63
2023-03-18T13:40:48.086Z,44.35
2023-03-18T13:42:29.984Z,44.67
2023-03-18T13:43:35.378Z,44.49
2023-03-18T13:44:48.085Z,44.59
2023-03-18T13:45:53.611Z,44.75
2023-03-18T13:47:04.004Z,44.76
2023-03-18T13:48:22.281Z,44.57
2023-03-18T13:49:29.783Z,44.89
2023-03-18T13:50:34.840Z,44.84
2023-03-18T13:51:37.561Z,45.04
2023-03-18T13:52:45.080Z,45.11
2023-03-18T13:53:50.637Z,44.83
2023-03-18T13:54:53.703Z,45.01
2023-03-18T13:55:56.630Z,44.89
2023-03-18T13:57:32.376Z,44.94
2023-03-18T13:58:45.258Z,44.59
2023-03-18T13:59:48.813Z,44.67
2023-03-18T14:00:54.622Z,44.85
2023-03-18T14:02:01.404Z,45.04
2023-03-18T14:03:42.549Z,45.25
2023-03-18T14:04:48.769Z,45.19
2023-03-18T14:06:14.610Z,45.27
2023-03-18T14:07:21.254Z,44.63
2023-03-18T14:08:39.344Z,44.54
2023-03-18T14:10:17.317Z,44.77
2023-03-18T14:11:24.211Z,44.92
2023-03-18T14:12:30.795Z,44.95
2023-03-18T14:13:33.684Z,44.97
2023-03-18T14:14:56.664Z,45.05
2023-03-18T14:16:08.083Z,44.82
2023-03-18T14:17:42.044Z,44.70
2023-03-18T14:18:44.842Z,44.73
2023-03-18T14:19:47.686Z,44.75
2023-03-18T14:20:55.220Z,44.52
2023-03-18T14:22:13.827Z,44.52
2023-03-18T14:23:34.598Z,44.62
2023-03-18T14:24:38.286Z,44.84
2023-03-18T14:25:42.682Z,44.84
2023-03-18T14:27:08.390Z,44.37
2023-03-18T14:28:11.114Z,44.24
2023-03-18T14:29:13.802Z,44.61
2023-03-18T14:30:34.908Z,44.64
2023-03-18T14:31:40.260Z,44.80
2023-03-18T14:32:57.373Z,44.97
2023-03-18T14:34:02.853Z,44.86
2023-03-18T14:35:17.559Z,44.93
2023-03-18T14:36:39.708Z,44.39
2023-03-18T14:38:07.332Z,44.64
2023-03-18T14:39:18.018Z,44.78